McHenry, IL (60050)

9:59 AM CDT on September 02, 2015 (GMT -0500)
Providence Farm | | Change Station
CLOSE
Current Station
Personal Weather Station
Location: McHenry, IL
Elevation: 755 ft
Nearby Weather Stations

Elev 755 ft 42.35 °N, 88.21 °W | Updated 16 seconds ago

Clear
Clear
79.9 °F
Feels Like 83 °F
N
2.0
Wind Variable Wind from SSW
Gusts 3.0 mph

Today
High -- | Low -- °F
--% Chance of Precip.
Yesterday
High -- | Low -- °F
Precip. -- in
6:19 AM 7:25 PM
Waning Gibbous, 79% visible
Pressure 30.00 in
Visibility 8.0 miles
Clouds Clear
Heat Index 83 °F
Dew Point 71 °F
Humidity 74%
Rainfall 0.00 in
Snow Depth Not available.
UV 2.7 out of 12
Pollen 11.00 out of 12
Air Quality Not available.
Flu Activity Not available.
METAR KUGN 021455Z VRB04KT 8SM CLR 27/21 A3004 RMK AO2 SLP159 T02670211 50003
Pressure 30.00 in
Visibility 8.0 miles
Clouds Clear
Heat Index 83 °F
Dew Point 71 °F
Humidity 74%
Rainfall 0.00 in
Snow Depth Not available.
UV 2.7 out of 12
Pollen 11.00 out of 12
Air Quality Not available.
Flu Activity Not available.
METAR KUGN 021455Z VRB04KT 8SM CLR 27/21 A3004 RMK AO2 SLP159 T02670211 50003

10-Day Weather Forecast

×

Almanac

Astronomy

Sep. 02, 2015 Rise Set
Actual Time
Civil Twilight
Nautical Twilight
Astronomical Twilight
Moon
Length of Visible Light
Length of Day
Tomorrow will be .
, % of the Moon is Illuminated

Today's Extremes

State Highs State Lows

Community

WunderPhotos

Upload Photos

1,851,763 photos uploaded!

WunderBlogs® & News

Nearby

Air Quality

  Air Quality AQ Index Pollutant
Not available.

Snow Depth

Station Depth Elevation

Earthquake Activity

City Distance Mag. Time & Date
Minimum magnitude displayed is 2.5.

Coastal Water Temperatures

Place Temperature

Stations

Nearby Weather Stations

Station Location Temp. Windchill Dew Point Humidity Wind Precip. Elev Updated Type